Time;durP1;ratioP1;P1;durP2;ratioP2;P2;SDS_P1;SDS_P2;PMS_P1;PMS_P2;Temp;Humidity;BMP_temperature;BMP_pressure;BME280_temperature;BME280_humidity;BME280_pressure;Samples;Min_cycle;Max_cycle;Signal;HPM_P1;HPM_P2
2023/02/07 00:01:15;;;;;;;;;;;0.90;99.90;;;;;;5076925;28;19924;-60
2023/02/07 00:03:41;;;;;;;;;;;0.90;99.90;;;;;;5092110;28;19943;-61
2023/02/07 00:06:09;;;;;;;;;;;0.90;99.90;;;;;;5077162;28;19928;-60
2023/02/07 00:08:37;;;;;;;;;;;0.60;99.90;;;;;;5091905;28;19928;-60
2023/02/07 00:11:04;;;;;;;;;;;0.70;99.90;;;;;;5084254;28;19973;-60
2023/02/07 00:13:31;;;;;;;;;;;0.80;99.90;;;;;;5083641;28;19924;-59
2023/02/07 00:15:58;;;;;;;;;;;0.80;99.90;;;;;;5089189;28;19927;-60
2023/02/07 00:18:24;;;;;;;;;;;0.90;99.90;;;;;;5087442;28;19968;-59
2023/02/07 00:20:57;;;;;;;;;;;1.00;99.90;;;;;;5084189;28;19924;-61
2023/02/07 00:23:23;;;;;;;;;;;0.80;99.90;;;;;;5083230;28;20341;-59
2023/02/07 00:25:51;;;;;;;;;;;0.80;99.90;;;;;;5077525;28;19951;-58
2023/02/07 00:28:18;;;;;;;;;;;0.70;99.90;;;;;;5079374;28;19924;-61
2023/02/07 00:30:44;;;;;;;;;;;0.50;99.90;;;;;;5081587;28;19931;-61
2023/02/07 00:33:11;;;;;;;;;;;0.40;99.90;;;;;;5082022;28;20325;-61
2023/02/07 00:35:37;;;;;;;;;;;0.70;99.90;;;;;;5083184;28;20453;-61
2023/02/07 00:38:04;;;;;;;;;;;0.30;99.90;;;;;;5080724;28;19983;-60
2023/02/07 00:40:30;;;;;;;;;;;0.10;99.90;;;;;;5084637;28;19978;-60
2023/02/07 00:42:58;;;;;;;;;;;0.30;99.90;;;;;;5086161;28;19924;-60
2023/02/07 00:45:25;;;;;;;;;;;0.40;99.90;;;;;;5084117;28;20445;-60
2023/02/07 00:47:51;;;;;;;;;;;0.50;99.90;;;;;;5081999;28;20600;-60
2023/02/07 00:50:18;;;;;;;;;;;0.40;99.90;;;;;;5082520;28;19928;-60
2023/02/07 00:52:44;;;;;;;;;;;0.50;99.90;;;;;;5082607;28;19924;-60
2023/02/07 00:55:11;;;;;;;;;;;0.40;99.90;;;;;;5082977;28;20456;-60
2023/02/07 00:57:37;;;;;;;;;;;0.00;99.90;;;;;;5082801;28;19931;-60
2023/02/07 01:00:07;;;;;;;;;;;0.00;99.90;;;;;;5082768;28;19931;-60
2023/02/07 01:02:33;;;;;;;;;;;0.00;99.90;;;;;;5082193;28;19928;-60
2023/02/07 01:05:00;;;;;;;;;;;0.20;99.90;;;;;;5085500;28;19924;-60
2023/02/07 01:07:26;;;;;;;;;;;0.30;99.90;;;;;;5081924;28;19928;-60
2023/02/07 01:09:53;;;;;;;;;;;0.50;99.90;;;;;;5085956;28;20349;-60
2023/02/07 01:12:19;;;;;;;;;;;0.60;99.90;;;;;;5088352;28;19969;-60
2023/02/07 01:14:46;;;;;;;;;;;0.30;99.90;;;;;;5085969;28;19924;-60
2023/02/07 01:17:14;;;;;;;;;;;0.40;99.90;;;;;;5087946;28;19933;-60
2023/02/07 01:19:40;;;;;;;;;;;0.60;99.90;;;;;;5086804;28;19970;-60
2023/02/07 01:22:07;;;;;;;;;;;0.70;99.90;;;;;;5085501;28;20303;-59
2023/02/07 01:24:34;;;;;;;;;;;0.70;99.90;;;;;;5086803;28;20420;-60
2023/02/07 01:27:01;;;;;;;;;;;0.60;99.90;;;;;;5085345;28;20011;-60
2023/02/07 01:29:27;;;;;;;;;;;0.70;99.90;;;;;;5084750;28;19924;-60
2023/02/07 01:31:54;;;;;;;;;;;0.80;99.90;;;;;;5090177;28;19928;-60
2023/02/07 01:34:22;;;;;;;;;;;0.80;99.90;;;;;;5085541;28;20284;-60
2023/02/07 01:36:48;;;;;;;;;;;0.70;99.90;;;;;;5086569;28;20011;-60
2023/02/07 01:39:16;;;;;;;;;;;0.70;99.90;;;;;;5082368;28;20279;-60
2023/02/07 01:41:42;;;;;;;;;;;0.80;99.90;;;;;;5087160;28;19936;-59
2023/02/07 01:44:39;;;;;;;;;;;0.80;99.90;;;;;;5086260;28;20529;-59
2023/02/07 01:47:06;;;;;;;;;;;0.80;99.90;;;;;;5088598;28;19938;-60
2023/02/07 01:49:35;;;;;;;;;;;0.80;99.90;;;;;;5086638;28;20010;-60
2023/02/07 01:52:04;;;;;;;;;;;0.60;99.90;;;;;;5081609;28;20311;-60
2023/02/07 01:54:32;;;;;;;;;;;0.50;99.90;;;;;;5082854;28;19925;-59
2023/02/07 01:57:00;;;;;;;;;;;0.30;99.90;;;;;;5087933;28;19991;-60
2023/02/07 01:59:27;;;;;;;;;;;0.20;99.90;;;;;;5083076;28;19924;-60
2023/02/07 02:01:54;;;;;;;;;;;0.30;99.90;;;;;;5085826;28;19935;-60
2023/02/07 02:04:20;;;;;;;;;;;0.40;99.90;;;;;;5086021;28;19924;-60
2023/02/07 02:06:48;;;;;;;;;;;0.40;99.90;;;;;;5086070;28;20329;-60
2023/02/07 02:09:16;;;;;;;;;;;0.30;99.90;;;;;;5083466;28;19948;-60
2023/02/07 02:12:03;;;;;;;;;;;0.00;99.90;;;;;;5083515;28;20329;-58
2023/02/07 02:14:38;;;;;;;;;;;-0.30;99.90;;;;;;5086293;28;19989;-58
2023/02/07 02:17:09;;;;;;;;;;;-0.50;99.90;;;;;;5087566;28;19924;-60
2023/02/07 02:19:49;;;;;;;;;;;-0.60;99.90;;;;;;5085165;28;20340;-60
2023/02/07 02:22:32;;;;;;;;;;;-0.80;99.90;;;;;;5087306;28;19924;-60
2023/02/07 02:25:15;;;;;;;;;;;-0.90;99.90;;;;;;5083656;28;19931;-59
2023/02/07 02:27:58;;;;;;;;;;;-0.90;99.90;;;;;;5081385;28;20371;-60
2023/02/07 02:30:33;;;;;;;;;;;-1.10;99.90;;;;;;5082892;28;20395;-60
2023/02/07 02:33:18;;;;;;;;;;;-1.10;99.90;;;;;;5085326;28;20387;-60
2023/02/07 02:35:46;;;;;;;;;;;-1.20;99.90;;;;;;5082409;28;19924;-60
2023/02/07 02:38:15;;;;;;;;;;;-1.10;99.90;;;;;;5086129;28;19986;-59
2023/02/07 02:40:46;;;;;;;;;;;-0.90;99.90;;;;;;5086148;28;19970;-59
2023/02/07 02:43:16;;;;;;;;;;;-0.80;99.90;;;;;;5090261;28;20402;-60
2023/02/07 02:45:44;;;;;;;;;;;-1.00;99.90;;;;;;5086078;28;19950;-60
2023/02/07 02:48:11;;;;;;;;;;;-1.20;99.90;;;;;;5081861;28;19932;-59
2023/02/07 02:50:39;;;;;;;;;;;-1.10;99.90;;;;;;5082416;28;19950;-60
2023/02/07 02:53:06;;;;;;;;;;;-1.00;99.90;;;;;;5081063;28;19947;-59
2023/02/07 02:55:45;;;;;;;;;;;-0.90;99.90;;;;;;5087538;28;19931;-59
2023/02/07 02:58:19;;;;;;;;;;;-0.90;99.90;;;;;;5077434;28;19925;-60
2023/02/07 03:00:54;;;;;;;;;;;-0.80;99.90;;;;;;5084656;28;19924;-60
2023/02/07 03:03:29;;;;;;;;;;;-0.70;99.90;;;;;;5084978;28;20307;-59
2023/02/07 03:06:01;;;;;;;;;;;-0.60;99.90;;;;;;5084357;28;19928;-60
2023/02/07 03:08:34;;;;;;;;;;;-0.50;99.90;;;;;;5080691;28;19950;-60
2023/02/07 03:11:04;;;;;;;;;;;-0.60;99.90;;;;;;5087801;28;19931;-60
2023/02/07 03:13:33;;;;;;;;;;;-0.90;99.90;;;;;;5088025;28;19928;-60
2023/02/07 03:16:03;;;;;;;;;;;-1.20;99.90;;;;;;5083884;28;19931;-57
2023/02/07 03:18:39;;;;;;;;;;;-1.50;99.90;;;;;;5080664;28;19985;-60
2023/02/07 03:21:09;;;;;;;;;;;-1.60;99.90;;;;;;5085638;28;19928;-59
2023/02/07 03:23:36;;;;;;;;;;;-1.80;99.90;;;;;;5082576;28;19935;-60
2023/02/07 03:26:03;;;;;;;;;;;-1.80;99.90;;;;;;5086661;28;19977;-60
2023/02/07 03:28:30;;;;;;;;;;;-1.70;99.90;;;;;;5086019;28;19925;-60
2023/02/07 03:30:58;;;;;;;;;;;-1.50;99.90;;;;;;5085130;28;19924;-60
2023/02/07 03:33:24;;;;;;;;;;;-1.30;99.90;;;;;;5083702;28;19928;-58
2023/02/07 03:35:53;;;;;;;;;;;-1.10;99.90;;;;;;5084895;28;20390;-59
2023/02/07 03:38:21;;;;;;;;;;;-1.00;99.90;;;;;;5080712;28;20376;-59
2023/02/07 03:40:51;;;;;;;;;;;-1.00;99.90;;;;;;5084395;28;20341;-59
2023/02/07 03:43:20;;;;;;;;;;;-1.00;99.90;;;;;;5086413;28;19976;-60
2023/02/07 03:45:46;;;;;;;;;;;-0.90;99.90;;;;;;5082674;28;19970;-59
2023/02/07 03:48:13;;;;;;;;;;;-0.80;99.90;;;;;;5077257;28;19986;-60
2023/02/07 03:50:39;;;;;;;;;;;-0.70;99.90;;;;;;5084908;28;19924;-59
2023/02/07 03:53:06;;;;;;;;;;;-0.80;99.90;;;;;;5085473;28;19928;-59
2023/02/07 03:55:34;;;;;;;;;;;-0.60;99.90;;;;;;5081465;28;19978;-59
2023/02/07 03:58:00;;;;;;;;;;;-0.60;99.90;;;;;;5088372;28;19945;-60
2023/02/07 04:00:27;;;;;;;;;;;-0.50;99.90;;;;;;5080337;28;19932;-59
2023/02/07 04:02:54;;;;;;;;;;;-0.50;99.90;;;;;;5084701;28;20361;-60
2023/02/07 04:05:20;;;;;;;;;;;-0.60;99.90;;;;;;5080997;28;19974;-60
2023/02/07 04:07:47;;;;;;;;;;;-0.60;99.90;;;;;;5084110;28;19947;-60
2023/02/07 04:10:13;;;;;;;;;;;-0.60;99.90;;;;;;5079540;28;19928;-60
2023/02/07 04:12:41;;;;;;;;;;;-0.60;99.90;;;;;;5082471;28;19928;-60
2023/02/07 04:15:09;;;;;;;;;;;-0.60;99.90;;;;;;5082692;28;20298;-60
2023/02/07 04:17:35;;;;;;;;;;;-0.50;99.90;;;;;;5080748;28;19925;-60
2023/02/07 04:20:02;;;;;;;;;;;-0.50;99.90;;;;;;5081105;28;19986;-60
2023/02/07 04:22:28;;;;;;;;;;;-0.50;99.90;;;;;;5084392;28;20617;-60
2023/02/07 04:24:55;;;;;;;;;;;-0.50;99.90;;;;;;5080764;28;19924;-60
2023/02/07 04:27:21;;;;;;;;;;;-0.50;99.90;;;;;;5079709;28;19924;-60
2023/02/07 04:29:49;;;;;;;;;;;-0.60;99.90;;;;;;5079813;28;19924;-60
2023/02/07 04:32:16;;;;;;;;;;;-0.60;99.90;;;;;;5084408;28;19928;-59
2023/02/07 04:34:43;;;;;;;;;;;-0.60;99.90;;;;;;5081622;28;19936;-59
2023/02/07 04:37:09;;;;;;;;;;;-0.70;99.90;;;;;;5083530;28;19987;-60
2023/02/07 04:39:36;;;;;;;;;;;-0.60;99.90;;;;;;5079221;28;20374;-60
2023/02/07 04:42:02;;;;;;;;;;;-0.60;99.90;;;;;;5083151;28;20363;-60
2023/02/07 04:44:29;;;;;;;;;;;-0.60;99.90;;;;;;5087375;28;19944;-58
2023/02/07 04:46:57;;;;;;;;;;;-0.60;99.90;;;;;;5081877;28;19925;-60
2023/02/07 04:49:24;;;;;;;;;;;-0.60;99.90;;;;;;5080683;28;19929;-59
2023/02/07 04:51:50;;;;;;;;;;;-0.60;99.90;;;;;;5084487;28;19928;-60
2023/02/07 04:54:17;;;;;;;;;;;-0.50;99.90;;;;;;5081064;28;19924;-59
2023/02/07 04:56:43;;;;;;;;;;;-0.50;99.90;;;;;;5083525;28;20329;-59
2023/02/07 04:59:10;;;;;;;;;;;-0.60;99.90;;;;;;5080639;28;19947;-60
2023/02/07 05:01:37;;;;;;;;;;;-0.70;99.90;;;;;;5084014;28;19924;-59
2023/02/07 05:04:05;;;;;;;;;;;-0.80;99.90;;;;;;5084558;28;19951;-60
2023/02/07 05:06:31;;;;;;;;;;;-0.80;99.90;;;;;;5080112;28;20383;-59
2023/02/07 05:08:58;;;;;;;;;;;-0.90;99.90;;;;;;5079257;28;19928;-59
2023/02/07 05:11:24;;;;;;;;;;;-1.00;99.90;;;;;;5084629;28;19931;-60
2023/02/07 05:13:51;;;;;;;;;;;-1.00;99.90;;;;;;5085239;28;19925;-59
2023/02/07 05:16:17;;;;;;;;;;;-1.10;99.90;;;;;;5083557;28;19932;-59
2023/02/07 05:18:44;;;;;;;;;;;-1.10;99.90;;;;;;5083202;28;19924;-59
2023/02/07 05:21:12;;;;;;;;;;;-1.20;99.90;;;;;;5080092;28;19986;-59
2023/02/07 05:23:38;;;;;;;;;;;-1.20;99.90;;;;;;5080541;28;19970;-60
2023/02/07 05:26:05;;;;;;;;;;;-1.20;99.90;;;;;;5079907;28;19973;-60
2023/02/07 05:28:31;;;;;;;;;;;-1.20;99.90;;;;;;5082487;28;19970;-60
2023/02/07 05:30:58;;;;;;;;;;;-1.20;99.90;;;;;;5080675;28;19925;-60
2023/02/07 05:33:24;;;;;;;;;;;-1.20;99.90;;;;;;5083242;28;20394;-60
2023/02/07 05:35:50;;;;;;;;;;;-1.20;99.90;;;;;;5081588;28;19927;-60
2023/02/07 05:38:19;;;;;;;;;;;-1.20;99.90;;;;;;5080676;28;20359;-60
2023/02/07 05:40:46;;;;;;;;;;;-1.20;99.90;;;;;;5081962;28;19982;-60
2023/02/07 05:43:12;;;;;;;;;;;-1.20;99.90;;;;;;5087132;28;19924;-60
2023/02/07 05:45:39;;;;;;;;;;;-1.20;99.90;;;;;;5083562;28;19928;-60
2023/02/07 05:48:06;;;;;;;;;;;-1.10;99.90;;;;;;5086731;28;19950;-60
2023/02/07 05:50:33;;;;;;;;;;;-1.10;99.90;;;;;;5084230;28;20337;-60
2023/02/07 05:52:59;;;;;;;;;;;-1.00;99.90;;;;;;5085984;28;20402;-60
2023/02/07 05:55:27;;;;;;;;;;;-1.10;99.90;;;;;;5085402;28;19925;-60
2023/02/07 05:57:53;;;;;;;;;;;-1.00;99.90;;;;;;5083534;28;19982;-60
2023/02/07 06:00:20;;;;;;;;;;;-1.10;99.90;;;;;;5085101;28;19978;-59
2023/02/07 06:02:47;;;;;;;;;;;-1.00;99.90;;;;;;5086965;28;19969;-57
2023/02/07 06:05:14;;;;;;;;;;;-1.20;99.90;;;;;;5084239;28;19932;-57
2023/02/07 06:07:41;;;;;;;;;;;-1.20;99.90;;;;;;5084903;28;20326;-59
2023/02/07 06:10:08;;;;;;;;;;;-1.10;99.90;;;;;;5083222;28;19924;-59
2023/02/07 06:12:35;;;;;;;;;;;-1.10;99.90;;;;;;5085295;28;19928;-59
2023/02/07 06:15:02;;;;;;;;;;;-1.10;99.90;;;;;;5088389;28;19924;-59
2023/02/07 06:17:29;;;;;;;;;;;-1.20;99.90;;;;;;5088599;28;19977;-58
2023/02/07 06:19:55;;;;;;;;;;;-1.30;99.90;;;;;;5085190;28;20019;-59
2023/02/07 06:22:22;;;;;;;;;;;-1.20;99.90;;;;;;5083422;28;20291;-57
2023/02/07 06:24:48;;;;;;;;;;;-1.20;99.90;;;;;;5084208;28;19931;-59
2023/02/07 06:27:15;;;;;;;;;;;-1.20;99.90;;;;;;5085775;28;20326;-59
2023/02/07 06:29:43;;;;;;;;;;;-1.10;99.90;;;;;;5083681;28;20407;-58
2023/02/07 06:32:09;;;;;;;;;;;-1.10;99.90;;;;;;5083918;28;20409;-58
2023/02/07 06:34:36;;;;;;;;;;;-1.10;99.90;;;;;;5083377;28;19931;-58
2023/02/07 06:37:03;;;;;;;;;;;-1.10;99.90;;;;;;5088744;28;19932;-58
2023/02/07 06:39:29;;;;;;;;;;;-1.10;99.90;;;;;;5082080;28;19924;-58
2023/02/07 06:41:56;;;;;;;;;;;-1.10;99.90;;;;;;5085070;28;20605;-58
2023/02/07 06:44:22;;;;;;;;;;;-1.20;99.90;;;;;;5086947;28;19974;-56
2023/02/07 06:46:50;;;;;;;;;;;-1.10;99.90;;;;;;5082541;28;19924;-57
2023/02/07 06:49:16;;;;;;;;;;;-1.10;99.90;;;;;;5083394;28;19924;-58
2023/02/07 06:51:43;;;;;;;;;;;-1.10;99.90;;;;;;5083085;28;19925;-56
2023/02/07 06:54:09;;;;;;;;;;;-1.20;99.90;;;;;;5084635;28;20428;-58
2023/02/07 06:56:36;;;;;;;;;;;-1.20;99.90;;;;;;5084487;28;19928;-58
2023/02/07 06:59:03;;;;;;;;;;;-1.20;99.90;;;;;;5083049;28;19986;-59
2023/02/07 07:01:29;;;;;;;;;;;-1.20;99.90;;;;;;5084215;28;19924;-56
2023/02/07 07:03:57;;;;;;;;;;;-1.20;99.90;;;;;;5085336;28;19924;-57
2023/02/07 07:06:24;;;;;;;;;;;-1.40;99.90;;;;;;5082805;28;19932;-59
2023/02/07 07:08:50;;;;;;;;;;;-1.40;99.90;;;;;;5083140;28;20306;-59
2023/02/07 07:11:17;;;;;;;;;;;-1.40;99.90;;;;;;5082540;28;19975;-60
2023/02/07 07:13:44;;;;;;;;;;;-1.30;99.90;;;;;;5089098;28;19928;-60
2023/02/07 07:16:10;;;;;;;;;;;-1.30;99.90;;;;;;5081965;28;19970;-59
2023/02/07 07:18:38;;;;;;;;;;;-1.30;99.90;;;;;;5084526;28;19928;-60
2023/02/07 07:21:06;;;;;;;;;;;-1.50;99.90;;;;;;5084339;28;19931;-59
2023/02/07 07:23:32;;;;;;;;;;;-1.40;99.90;;;;;;5082108;28;19928;-60
2023/02/07 07:25:59;;;;;;;;;;;-1.30;99.90;;;;;;5083246;28;19985;-59
2023/02/07 07:28:25;;;;;;;;;;;-1.30;99.90;;;;;;5084461;28;19973;-60
2023/02/07 07:30:52;;;;;;;;;;;-1.20;99.90;;;;;;5082432;28;20383;-60
2023/02/07 07:33:18;;;;;;;;;;;-1.10;99.90;;;;;;5082620;28;20307;-60
2023/02/07 07:35:45;;;;;;;;;;;-1.10;99.90;;;;;;5084108;28;19928;-60
2023/02/07 07:38:13;;;;;;;;;;;-1.00;99.90;;;;;;5083178;28;19924;-60
2023/02/07 07:40:39;;;;;;;;;;;-1.00;99.90;;;;;;5081738;28;19925;-60
2023/02/07 07:43:06;;;;;;;;;;;-0.90;99.90;;;;;;5090693;28;20349;-60
2023/02/07 07:45:32;;;;;;;;;;;-0.90;99.90;;;;;;5082502;28;19970;-60
2023/02/07 07:47:59;;;;;;;;;;;-0.80;99.90;;;;;;5084522;28;20314;-60
2023/02/07 07:50:25;;;;;;;;;;;-0.70;99.90;;;;;;5082973;28;19978;-59
2023/02/07 07:52:52;;;;;;;;;;;-0.70;99.90;;;;;;5081770;28;19924;-60
2023/02/07 07:55:20;;;;;;;;;;;-0.80;99.90;;;;;;5083588;28;20271;-61
2023/02/07 07:57:46;;;;;;;;;;;-0.90;99.90;;;;;;5083296;28;19931;-59
2023/02/07 08:00:13;;;;;;;;;;;-0.80;99.90;;;;;;5081277;28;19924;-61
2023/02/07 08:02:40;;;;;;;;;;;-0.80;99.90;;;;;;5082636;28;19928;-61
2023/02/07 08:05:07;;;;;;;;;;;-0.80;99.90;;;;;;5083920;28;20442;-61
2023/02/07 08:07:33;;;;;;;;;;;-0.70;99.90;;;;;;5081610;28;19970;-61
2023/02/07 08:10:00;;;;;;;;;;;-0.70;99.90;;;;;;5083790;28;19924;-59
2023/02/07 08:12:28;;;;;;;;;;;-0.60;99.90;;;;;;5084671;28;19925;-61
2023/02/07 08:14:54;;;;;;;;;;;-0.60;99.90;;;;;;5083685;28;19931;-62
2023/02/07 08:17:21;;;;;;;;;;;-0.50;99.90;;;;;;5080734;28;20315;-61
2023/02/07 08:19:47;;;;;;;;;;;-0.50;99.90;;;;;;5083689;28;19927;-61
2023/02/07 08:22:14;;;;;;;;;;;-0.40;99.90;;;;;;5083167;28;19969;-60
2023/02/07 08:24:41;;;;;;;;;;;-0.40;99.90;;;;;;5080907;28;20379;-60
2023/02/07 08:27:08;;;;;;;;;;;-0.40;99.90;;;;;;5082168;28;20015;-61
2023/02/07 08:29:35;;;;;;;;;;;-0.50;99.90;;;;;;5083472;28;19924;-60
2023/02/07 08:32:02;;;;;;;;;;;-0.40;99.90;;;;;;5081661;28;19929;-59
2023/02/07 08:34:30;;;;;;;;;;;-0.20;99.90;;;;;;5081525;28;19935;-63
2023/02/07 08:36:57;;;;;;;;;;;-0.10;99.90;;;;;;5083424;28;19930;-61
2023/02/07 08:39:23;;;;;;;;;;;0.00;99.90;;;;;;5083503;28;20337;-61
2023/02/07 08:41:50;;;;;;;;;;;0.00;99.90;;;;;;5083276;28;19925;-60
2023/02/07 08:44:16;;;;;;;;;;;0.20;99.90;;;;;;5083806;28;19924;-60
2023/02/07 08:46:44;;;;;;;;;;;0.30;99.90;;;;;;5082497;28;19924;-60
2023/02/07 08:49:11;;;;;;;;;;;0.40;99.90;;;;;;5080319;28;19932;-61
2023/02/07 08:51:38;;;;;;;;;;;0.50;99.90;;;;;;5079780;28;19924;-61
2023/02/07 08:54:04;;;;;;;;;;;0.70;99.90;;;;;;5083636;28;19924;-60
2023/02/07 08:56:31;;;;;;;;;;;0.80;99.90;;;;;;5081289;28;19924;-59
2023/02/07 08:58:57;;;;;;;;;;;1.00;99.90;;;;;;5081272;28;19950;-64
2023/02/07 09:01:25;;;;;;;;;;;1.00;99.90;;;;;;5083249;28;19928;-61
2023/02/07 09:03:55;;;;;;;;;;;1.10;99.90;;;;;;5082551;28;20349;-61
2023/02/07 09:06:22;;;;;;;;;;;1.20;99.90;;;;;;5080412;28;20024;-61
2023/02/07 09:08:48;;;;;;;;;;;1.30;99.90;;;;;;5082187;28;19928;-62
2023/02/07 09:11:15;;;;;;;;;;;1.10;99.90;;;;;;5081389;28;19924;-62
2023/02/07 09:13:44;;;;;;;;;;;1.20;99.90;;;;;;5083703;28;19928;-61
2023/02/07 09:16:11;;;;;;;;;;;1.10;99.90;;;;;;5082097;28;19931;-61
2023/02/07 09:18:37;;;;;;;;;;;1.00;99.90;;;;;;5080932;28;19924;-61
2023/02/07 09:21:05;;;;;;;;;;;1.00;99.90;;;;;;5081975;28;19931;-61
2023/02/07 09:23:34;;;;;;;;;;;1.00;99.10;;;;;;5082823;28;20349;-61
2023/02/07 09:26:02;;;;;;;;;;;1.20;95.70;;;;;;5083859;28;19936;-61
2023/02/07 09:28:29;;;;;;;;;;;1.30;90.80;;;;;;5084709;28;19932;-61
2023/02/07 09:30:55;;;;;;;;;;;1.30;92.00;;;;;;5084524;28;19928;-61
2023/02/07 09:33:23;;;;;;;;;;;1.20;84.20;;;;;;5085181;28;20404;-60
2023/02/07 09:35:49;;;;;;;;;;;1.30;90.50;;;;;;5086563;28;20382;-60
2023/02/07 09:38:19;;;;;;;;;;;1.30;86.50;;;;;;5085114;28;19929;-60
2023/02/07 09:40:47;;;;;;;;;;;1.20;72.80;;;;;;5084625;28;19932;-60
2023/02/07 09:43:19;;;;;;;;;;;1.10;58.30;;;;;;5090356;28;20364;-61
2023/02/07 09:45:47;;;;;;;;;;;1.30;77.80;;;;;;5083788;28;19931;-60
2023/02/07 09:48:16;;;;;;;;;;;1.30;62.80;;;;;;5083823;28;19925;-60
2023/02/07 09:50:45;;;;;;;;;;;1.30;33.10;;;;;;5083943;28;19931;-60
2023/02/07 09:53:13;;;;;;;;;;;1.40;25.80;;;;;;5085527;28;19931;-60
2023/02/07 09:55:44;;;;;;;;;;;1.40;31.40;;;;;;5086674;28;19925;-60
2023/02/07 09:58:13;;;;;;;;;;;1.50;20.20;;;;;;5084965;28;19929;-60
2023/02/07 10:00:42;;;;;;;;;;;1.50;9.10;;;;;;5084121;28;19931;-60
2023/02/07 10:03:10;;;;;;;;;;;1.70;8.40;;;;;;5086313;28;19966;-61
2023/02/07 10:05:39;;;;;;;;;;;1.70;1.00;;;;;;5086339;28;19924;-60
2023/02/07 10:08:07;;;;;;;;;;;1.90;7.60;;;;;;5083712;28;20019;-61
2023/02/07 10:10:37;;;;;;;;;;;2.10;15.20;;;;;;5084189;28;20363;-61
2023/02/07 10:13:16;;;;;;;;;;;2.30;1.00;;;;;;5092152;28;19928;-61
2023/02/07 10:15:49;;;;;;;;;;;2.50;1.00;;;;;;5083317;28;19973;-61
2023/02/07 10:18:21;;;;;;;;;;;2.40;1.00;;;;;;5083709;28;19924;-61
2023/02/07 10:20:52;;;;;;;;;;;2.50;1.00;;;;;;5084377;28;19932;-60
2023/02/07 10:23:24;;;;;;;;;;;2.50;1.00;;;;;;5083539;28;19974;-61
2023/02/07 10:25:57;;;;;;;;;;;2.60;1.00;;;;;;5084427;28;19924;-61
2023/02/07 10:28:50;;;;;;;;;;;2.50;1.00;;;;;;5083026;28;19959;-60
2023/02/07 10:31:17;;;;;;;;;;;2.50;1.00;;;;;;5074051;28;20418;-60
2023/02/07 10:33:47;;;;;;;;;;;2.40;1.00;;;;;;5074386;28;20027;-61
2023/02/07 10:36:15;;;;;;;;;;;2.50;1.00;;;;;;5073765;28;19924;-61
2023/02/07 10:38:45;;;;;;;;;;;2.50;1.00;;;;;;5074433;28;19924;-60
2023/02/07 10:41:14;;;;;;;;;;;2.60;1.00;;;;;;5085093;28;19924;-60
2023/02/07 10:43:42;;;;;;;;;;;2.60;99.90;;;;;;5085934;28;19924;-61
2023/02/07 10:46:10;;;;;;;;;;;2.60;99.90;;;;;;5083135;28;20295;-61
2023/02/07 10:48:37;;;;;;;;;;;2.60;1.00;;;;;;5083671;28;19925;-61
2023/02/07 10:51:10;;;;;;;;;;;2.70;99.90;;;;;;5085821;28;19931;-61
2023/02/07 10:53:45;;;;;;;;;;;2.80;1.00;;;;;;5084968;28;20300;-62
2023/02/07 10:56:14;;;;;;;;;;;2.70;1.00;;;;;;5083575;28;19971;-61
2023/02/07 10:58:41;;;;;;;;;;;2.70;99.90;;;;;;5082760;28;19924;-61
2023/02/07 11:01:17;;;;;;;;;;;2.70;99.90;;;;;;5084876;28;20306;-60
2023/02/07 11:03:43;;;;;;;;;;;2.60;1.00;;;;;;5084925;28;19925;-61
2023/02/07 11:06:13;;;;;;;;;;;2.90;99.90;;;;;;5083149;28;19925;-60
2023/02/07 11:08:39;;;;;;;;;;;3.10;99.90;;;;;;5082355;28;20398;-61
2023/02/07 11:11:22;;;;;;;;;;;3.30;1.00;;;;;;5084277;28;19924;-60
2023/02/07 11:13:50;;;;;;;;;;;3.20;1.00;;;;;;5084140;28;20359;-61
2023/02/07 11:16:19;;;;;;;;;;;3.20;99.90;;;;;;5085655;28;20401;-60
2023/02/07 11:18:46;;;;;;;;;;;3.00;99.90;;;;;;5082378;28;20347;-61
2023/02/07 11:21:22;;;;;;;;;;;3.10;1.00;;;;;;5083162;28;19924;-61
2023/02/07 11:23:49;;;;;;;;;;;3.20;99.90;;;;;;5083154;28;19924;-60
2023/02/07 11:26:17;;;;;;;;;;;3.40;1.00;;;;;;5082420;28;19924;-60
2023/02/07 11:28:43;;;;;;;;;;;3.30;1.00;;;;;;5082158;28;19951;-60
2023/02/07 11:31:13;;;;;;;;;;;3.10;99.90;;;;;;5083059;28;19932;-60
2023/02/07 11:33:41;;;;;;;;;;;3.20;99.90;;;;;;5084582;28;19928;-61
2023/02/07 11:36:12;;;;;;;;;;;3.30;1.00;;;;;;5082748;28;20054;-60
2023/02/07 11:38:39;;;;;;;;;;;3.60;99.90;;;;;;5081931;28;19924;-60
2023/02/07 11:41:06;;;;;;;;;;;3.60;99.90;;;;;;5083154;28;19928;-60
2023/02/07 11:43:33;;;;;;;;;;;3.40;99.90;;;;;;5085681;28;20363;-60
2023/02/07 11:46:02;;;;;;;;;;;3.50;99.90;;;;;;5081733;28;19990;-61
2023/02/07 11:48:29;;;;;;;;;;;3.70;99.90;;;;;;5078016;28;20015;-60
2023/02/07 11:50:59;;;;;;;;;;;3.60;67.80;;;;;;5071744;28;19928;-60
2023/02/07 11:53:28;;;;;;;;;;;3.80;1.00;;;;;;5072221;28;20540;-60
2023/02/07 11:55:55;;;;;;;;;;;4.00;1.00;;;;;;5071945;28;19982;-61
2023/02/07 11:58:29;;;;;;;;;;;4.00;99.90;;;;;;5071594;28;19929;-60
2023/02/07 12:00:55;;;;;;;;;;;4.00;99.90;;;;;;5081957;28;20011;-60
2023/02/07 12:03:23;;;;;;;;;;;4.10;99.90;;;;;;5082185;28;19924;-61
2023/02/07 12:05:52;;;;;;;;;;;3.90;44.70;;;;;;5083719;28;20382;-60
2023/02/07 12:08:23;;;;;;;;;;;3.70;99.90;;;;;;5082682;28;19932;-61
2023/02/07 12:10:51;;;;;;;;;;;3.70;99.90;;;;;;5085316;28;19929;-61
2023/02/07 12:13:19;;;;;;;;;;;3.80;1.00;;;;;;5091221;28;19928;-60
2023/02/07 12:15:48;;;;;;;;;;;3.70;99.90;;;;;;5080624;28;19950;-60
2023/02/07 12:18:19;;;;;;;;;;;3.70;99.90;;;;;;5082226;28;19924;-62
2023/02/07 12:20:48;;;;;;;;;;;3.90;99.90;;;;;;5083807;28;20394;-61
2023/02/07 12:23:19;;;;;;;;;;;4.00;99.90;;;;;;5082692;28;19931;-61
2023/02/07 12:25:48;;;;;;;;;;;4.00;99.90;;;;;;5080485;28;19973;-60
2023/02/07 12:28:19;;;;;;;;;;;4.10;1.00;;;;;;5082560;28;19925;-61
2023/02/07 12:30:48;;;;;;;;;;;4.10;1.00;;;;;;5080987;28;19973;-62
2023/02/07 12:33:19;;;;;;;;;;;4.30;1.00;;;;;;5081878;28;19928;-60
2023/02/07 12:35:48;;;;;;;;;;;4.40;99.90;;;;;;5083603;28;19924;-61
2023/02/07 12:38:16;;;;;;;;;;;4.20;1.00;;;;;;5082570;28;19961;-61
2023/02/07 12:40:44;;;;;;;;;;;4.20;99.90;;;;;;5083065;28;20427;-65
2023/02/07 12:43:13;;;;;;;;;;;4.30;99.90;;;;;;5087116;28;19935;-62
2023/02/07 12:45:46;;;;;;;;;;;3.90;1.00;;;;;;5088604;28;19928;-62
2023/02/07 12:48:19;;;;;;;;;;;3.90;1.00;;;;;;5082575;28;19970;-62
2023/02/07 12:50:54;;;;;;;;;;;4.20;1.00;;;;;;5086801;28;20299;-61
2023/02/07 12:53:42;;;;;;;;;;;4.30;1.00;;;;;;5088070;28;20344;-61
2023/02/07 12:56:17;;;;;;;;;;;4.40;1.00;;;;;;5078744;28;19931;-61
2023/02/07 12:58:49;;;;;;;;;;;4.70;1.00;;;;;;5086356;28;20355;-62
2023/02/07 13:01:20;;;;;;;;;;;4.90;1.00;;;;;;5075514;28;19931;-62
2023/02/07 13:03:59;;;;;;;;;;;5.00;99.90;;;;;;5081317;28;20422;-60
2023/02/07 13:06:31;;;;;;;;;;;5.00;99.90;;;;;;5087424;28;19925;-62
2023/02/07 13:09:03;;;;;;;;;;;4.80;99.90;;;;;;5078379;28;20367;-61
2023/02/07 13:11:36;;;;;;;;;;;4.80;81.20;;;;;;5087193;28;19993;-62
2023/02/07 13:14:13;;;;;;;;;;;4.90;99.90;;;;;;5091770;28;19934;-61
2023/02/07 13:16:43;;;;;;;;;;;4.70;65.50;;;;;;5085874;28;19928;-62
2023/02/07 13:19:16;;;;;;;;;;;4.90;60.30;;;;;;5085534;28;19928;-61
2023/02/07 13:21:47;;;;;;;;;;;5.00;1.00;;;;;;5083315;28;19924;-62
2023/02/07 13:24:15;;;;;;;;;;;4.90;1.00;;;;;;5087194;28;19951;-62
2023/02/07 13:26:42;;;;;;;;;;;4.80;38.30;;;;;;5084949;28;19931;-62
2023/02/07 13:29:14;;;;;;;;;;;4.70;42.00;;;;;;5087077;28;19931;-60
2023/02/07 13:31:42;;;;;;;;;;;4.70;99.90;;;;;;5087246;28;20314;-61
2023/02/07 13:34:12;;;;;;;;;;;4.70;99.90;;;;;;5085086;28;19970;-60
2023/02/07 13:36:41;;;;;;;;;;;4.80;99.90;;;;;;5087226;28;19924;-61
2023/02/07 13:39:14;;;;;;;;;;;5.10;57.90;;;;;;5086685;28;19924;-61
2023/02/07 13:41:48;;;;;;;;;;;5.20;29.30;;;;;;5085391;28;20072;-67
2023/02/07 13:44:19;;;;;;;;;;;5.40;99.90;;;;;;5091239;28;19928;-66
2023/02/07 13:46:55;;;;;;;;;;;5.60;99.90;;;;;;5083492;28;19929;-65
2023/02/07 13:49:24;;;;;;;;;;;5.80;1.00;;;;;;5084528;28;19920;-61
2023/02/07 13:51:56;;;;;;;;;;;5.70;1.00;;;;;;5081621;28;19986;-63
2023/02/07 13:54:30;;;;;;;;;;;5.70;1.00;;;;;;5081787;28;20427;-62
2023/02/07 14:00:13;;;;;;;;;;;5.20;1.00;;;;;;5053390;28;19928;-64
2023/02/07 14:02:41;;;;;;;;;;;5.00;1.00;;;;;;5087080;28;19924;-64
2023/02/07 14:05:10;;;;;;;;;;;4.80;1.00;;;;;;5079955;28;19982;-64
2023/02/07 14:07:38;;;;;;;;;;;4.70;1.00;;;;;;5083516;28;19928;-62
2023/02/07 14:10:05;;;;;;;;;;;4.70;1.00;;;;;;5078464;28;19930;-62
2023/02/07 14:12:33;;;;;;;;;;;4.80;1.00;;;;;;5085856;28;19989;-63
2023/02/07 14:15:35;;;;;;;;;;;4.90;1.00;;;;;;5090914;28;19920;-63
2023/02/07 14:18:03;;;;;;;;;;;4.80;1.00;;;;;;5087806;28;19920;-64
2023/02/07 14:20:46;;;;;;;;;;;4.80;1.00;;;;;;5086644;28;19924;-63
2023/02/07 14:23:14;;;;;;;;;;;4.70;1.00;;;;;;5078518;28;20538;-63
2023/02/07 14:25:42;;;;;;;;;;;4.60;1.00;;;;;;5088033;28;19995;-63
2023/02/07 14:28:19;;;;;;;;;;;4.70;1.00;;;;;;5088496;28;19927;-62
2023/02/07 14:31:04;;;;;;;;;;;4.80;1.00;;;;;;5090416;28;20272;-63
2023/02/07 14:33:34;;;;;;;;;;;4.70;1.00;;;;;;5085034;28;19924;-62
2023/02/07 14:36:24;;;;;;;;;;;4.60;1.30;;;;;;5083769;28;19920;-61
2023/02/07 14:39:01;;;;;;;;;;;4.60;1.00;;;;;;5085233;28;19932;-62